KMRN/MRN METAR and TAF weather

Enter ICAO airport designator
Station Type Date Time Source
KMRN METAR 2024/06/16 09:45 UTC NOAA

KMRN 160945Z AUTO 00000KT 10SM SCT044 SCT065 BKN080 21/21 A3014 RMK AO2 T02130205


Station Type Date Time Source
KMRN Decoded METAR 2024/06/16 09:45 UTC NOAA

Morganton, Morganton-Lenoir Airport, NC, United States (KMRN) 35-49-17N 081-36-39W
Jun 16, 2024 - 05:45 AM EDT / 2024.06.16 0945 UTC
Wind: Calm:0
Visibility: 10 mile(s):0
Sky conditions: mostly cloudy
Temperature: 70.3 F (21.3 C)
Dew Point: 68.9 F (20.5 C)
Relative Humidity: 95%
Pressure (altimeter): 30.14 in. Hg (1020 hPa)
ob: KMRN 160945Z AUTO 00000KT 10SM SCT044 SCT065 BKN080 21/21 A3014 RMK AO2 T02130205
cycle: 10

Station Type Date Time Source
KMRN TAF UTC NOAA

Error!

Example: see airport list